createdAt,value
2023-04-29T00:00:10.416Z,24.13
2023-04-29T00:02:37.085Z,26.53
2023-04-29T00:05:05.467Z,20.20
2023-04-29T00:07:36.424Z,21.70
2023-04-29T00:10:03.326Z,19.17
2023-04-29T00:12:31.852Z,21.13
2023-04-29T00:14:58.380Z,22.13
2023-04-29T00:17:25.260Z,22.07
2023-04-29T00:19:52.039Z,20.73
2023-04-29T00:22:19.022Z,20.80
2023-04-29T00:24:45.671Z,21.90
2023-04-29T00:27:13.412Z,26.03
2023-04-29T00:29:39.930Z,23.57
2023-04-29T00:32:06.418Z,22.07
2023-04-29T00:34:32.902Z,24.27
2023-04-29T00:36:59.349Z,21.57
2023-04-29T00:39:25.946Z,20.27
2023-04-29T00:41:52.956Z,23.87
2023-04-29T00:44:19.437Z,25.10
2023-04-29T00:46:45.976Z,25.53
2023-04-29T00:49:13.025Z,19.90
2023-04-29T00:51:40.728Z,20.47
2023-04-29T00:54:08.101Z,21.57
2023-04-29T00:56:35.898Z,23.07
2023-04-29T00:59:03.571Z,19.43
2023-04-29T01:01:30.605Z,20.80
2023-04-29T01:03:58.274Z,22.40
2023-04-29T01:06:41.964Z,22.67
2023-04-29T01:09:22.823Z,20.00
2023-04-29T01:12:06.781Z,20.20
2023-04-29T01:14:34.855Z,18.40
2023-04-29T01:17:06.445Z,22.67
2023-04-29T01:19:48.670Z,20.13
2023-04-29T01:22:17.571Z,22.57
2023-04-29T01:24:44.035Z,24.00
2023-04-29T01:27:30.188Z,22.20
2023-04-29T01:30:02.541Z,20.10
2023-04-29T01:32:44.059Z,20.27
2023-04-29T01:35:38.354Z,21.73
2023-04-29T01:38:34.282Z,20.67
2023-04-29T01:41:17.199Z,22.30
2023-04-29T01:43:47.789Z,22.27
2023-04-29T01:46:16.517Z,17.80
2023-04-29T01:48:43.528Z,25.40
2023-04-29T01:51:10.013Z,24.93
2023-04-29T01:53:36.449Z,20.50
2023-04-29T01:56:02.909Z,24.70
2023-04-29T01:58:29.537Z,21.70
2023-04-29T02:00:56.066Z,20.97
2023-04-29T02:03:22.876Z,23.10
2023-04-29T02:05:50.544Z,19.80
2023-04-29T02:08:20.081Z,19.73
2023-04-29T02:10:56.469Z,17.90
2023-04-29T02:13:23.115Z,19.83
2023-04-29T02:15:49.633Z,25.80
2023-04-29T02:18:16.606Z,18.87
2023-04-29T02:20:43.519Z,20.27
2023-04-29T02:23:09.997Z,21.97
2023-04-29T02:25:37.161Z,17.13
2023-04-29T02:28:03.677Z,19.97
2023-04-29T02:30:30.742Z,20.73
2023-04-29T02:32:57.262Z,19.67
2023-04-29T02:35:23.751Z,16.03
2023-04-29T02:37:50.189Z,19.47
2023-04-29T02:40:16.821Z,17.53
2023-04-29T02:42:43.264Z,17.87
2023-04-29T02:45:10.514Z,16.87
2023-04-29T02:47:37.279Z,17.30
2023-04-29T02:50:04.824Z,17.57
2023-04-29T02:52:31.321Z,17.03
2023-04-29T02:54:57.930Z,16.87
2023-04-29T02:57:24.395Z,17.40
2023-04-29T02:59:51.491Z,22.60
2023-04-29T03:02:18.524Z,21.53
2023-04-29T03:04:45.622Z,17.93
2023-04-29T03:07:12.132Z,18.00
2023-04-29T03:09:38.645Z,21.33
2023-04-29T03:12:05.272Z,15.63
2023-04-29T03:14:31.716Z,14.60
2023-04-29T03:16:58.390Z,18.57
2023-04-29T03:19:24.971Z,12.93
2023-04-29T03:21:53.395Z,19.27
2023-04-29T03:24:20.476Z,15.37
2023-04-29T03:26:47.398Z,17.90
2023-04-29T03:29:13.889Z,19.20
2023-04-29T03:31:40.525Z,18.27
2023-04-29T03:34:07.100Z,17.03
2023-04-29T03:36:33.603Z,14.03
2023-04-29T03:39:00.352Z,14.93
2023-04-29T03:41:27.023Z,16.63
2023-04-29T03:43:54.943Z,17.07
2023-04-29T03:46:21.759Z,17.67
2023-04-29T03:48:48.337Z,12.87
2023-04-29T03:51:14.987Z,16.23
2023-04-29T03:53:41.628Z,20.30
2023-04-29T03:56:08.171Z,17.00
2023-04-29T03:58:34.669Z,15.97
2023-04-29T04:01:01.442Z,13.03
2023-04-29T04:03:28.361Z,16.57
2023-04-29T04:05:54.999Z,16.07
2023-04-29T04:08:21.504Z,16.27
2023-04-29T04:10:48.065Z,13.93
2023-04-29T04:13:14.593Z,13.80
2023-04-29T04:15:42.359Z,15.93
2023-04-29T04:18:08.891Z,16.63
2023-04-29T04:20:38.599Z,19.00
2023-04-29T04:23:05.593Z,18.47
2023-04-29T04:25:32.043Z,14.73
2023-04-29T04:27:58.593Z,15.03
2023-04-29T04:30:25.107Z,12.47
2023-04-29T04:32:51.713Z,15.67
2023-04-29T04:35:18.704Z,21.23
2023-04-29T04:37:45.525Z,13.47
2023-04-29T04:40:13.742Z,15.10
2023-04-29T04:42:40.331Z,14.33
2023-04-29T04:45:07.477Z,12.00
2023-04-29T04:47:33.974Z,11.93
2023-04-29T04:50:00.538Z,12.80
2023-04-29T04:52:27.143Z,16.00
2023-04-29T04:54:53.662Z,16.87
2023-04-29T04:57:20.203Z,15.53
2023-04-29T04:59:46.719Z,14.90
2023-04-29T05:02:13.227Z,11.77
2023-04-29T05:04:39.715Z,15.03
2023-04-29T05:07:06.178Z,11.93
2023-04-29T05:09:32.938Z,14.10
2023-04-29T05:11:59.601Z,11.73
2023-04-29T05:14:26.579Z,15.10
2023-04-29T05:16:53.510Z,12.53
2023-04-29T05:19:20.247Z,13.30
2023-04-29T05:21:46.745Z,9.73
2023-04-29T05:24:13.214Z,13.07
2023-04-29T05:26:39.698Z,12.37
2023-04-29T05:29:06.235Z,17.90
2023-04-29T05:31:33.475Z,15.87
2023-04-29T05:34:00.026Z,14.43
2023-04-29T05:36:28.026Z,16.07
2023-04-29T05:38:54.573Z,11.17
2023-04-29T05:41:21.432Z,13.10
2023-04-29T05:43:47.992Z,18.50
2023-04-29T05:46:14.545Z,12.23
2023-04-29T05:48:41.256Z,15.03
2023-04-29T05:51:07.837Z,14.20
2023-04-29T05:53:35.750Z,9.40
2023-04-29T05:56:06.544Z,11.80
2023-04-29T05:58:33.278Z,18.17
2023-04-29T06:01:00.264Z,19.20
2023-04-29T06:03:27.425Z,15.33
2023-04-29T06:05:54.198Z,10.17
2023-04-29T06:08:21.247Z,11.63
2023-04-29T06:10:47.896Z,14.60
2023-04-29T06:13:14.345Z,12.47
2023-04-29T06:15:40.927Z,13.80
2023-04-29T06:18:07.474Z,11.67
2023-04-29T06:20:36.084Z,13.37
2023-04-29T06:23:05.253Z,13.43
2023-04-29T06:25:31.816Z,9.70
2023-04-29T06:27:58.598Z,9.17
2023-04-29T06:30:25.281Z,10.97
2023-04-29T06:32:51.864Z,11.97
2023-04-29T06:35:18.542Z,10.33
2023-04-29T06:37:45.212Z,10.47
2023-04-29T06:40:12.000Z,12.97
2023-04-29T06:42:38.716Z,11.60
2023-04-29T06:45:05.833Z,13.47
2023-04-29T06:47:33.043Z,13.03
2023-04-29T06:49:59.667Z,15.47
2023-04-29T06:52:26.316Z,8.93
2023-04-29T06:54:52.852Z,11.30
2023-04-29T06:57:20.752Z,14.47
2023-04-29T06:59:47.331Z,12.00
2023-04-29T07:02:13.919Z,13.93
2023-04-29T07:04:41.076Z,13.20
2023-04-29T07:07:07.697Z,12.47
2023-04-29T07:09:34.213Z,9.87
2023-04-29T07:12:03.597Z,10.90
2023-04-29T07:14:30.500Z,11.23
2023-04-29T07:16:57.155Z,12.97
2023-04-29T07:19:23.837Z,13.40
2023-04-29T07:21:50.291Z,9.93
2023-04-29T07:24:16.868Z,13.27
2023-04-29T07:26:45.266Z,9.17
2023-04-29T07:29:11.831Z,11.23
2023-04-29T07:31:38.653Z,14.53
2023-04-29T07:34:05.990Z,10.07
2023-04-29T07:36:33.060Z,9.50
2023-04-29T07:38:59.907Z,12.03
2023-04-29T07:41:27.265Z,8.47
2023-04-29T07:43:53.899Z,9.30
2023-04-29T07:46:20.606Z,8.43
2023-04-29T07:48:47.196Z,15.80
2023-04-29T07:51:14.614Z,15.57
2023-04-29T07:53:41.674Z,10.57
2023-04-29T07:56:08.720Z,11.90
2023-04-29T07:58:35.413Z,13.80
2023-04-29T08:01:12.259Z,11.60
2023-04-29T08:03:41.433Z,7.90
2023-04-29T08:06:08.896Z,8.53
2023-04-29T08:08:35.804Z,9.83
2023-04-29T08:11:02.333Z,10.43
2023-04-29T08:13:28.922Z,8.23
2023-04-29T08:15:55.793Z,10.20
2023-04-29T08:18:22.418Z,14.70
2023-04-29T08:20:52.045Z,10.10
2023-04-29T08:23:18.756Z,14.17
2023-04-29T08:25:45.845Z,13.97
2023-04-29T08:28:12.366Z,13.00
2023-04-29T08:30:41.738Z,6.30
2023-04-29T08:33:08.967Z,12.07
2023-04-29T08:35:38.897Z,10.57
2023-04-29T08:38:06.750Z,7.53
2023-04-29T08:40:44.043Z,11.50
2023-04-29T08:43:10.830Z,18.20
2023-04-29T08:45:37.757Z,11.60
2023-04-29T08:48:04.816Z,12.17
2023-04-29T08:50:31.854Z,8.83
2023-04-29T08:52:58.600Z,14.53
2023-04-29T08:55:26.251Z,10.57
2023-04-29T08:57:55.106Z,8.17
2023-04-29T09:00:22.682Z,11.80
2023-04-29T09:02:54.185Z,10.13
2023-04-29T09:05:21.998Z,7.30
2023-04-29T09:07:48.906Z,8.17
2023-04-29T09:10:16.963Z,6.13
2023-04-29T09:12:43.643Z,9.67
2023-04-29T09:15:10.755Z,12.60
2023-04-29T09:17:42.656Z,9.37
2023-04-29T09:20:21.360Z,8.37
2023-04-29T09:22:52.730Z,7.67
2023-04-29T09:25:19.842Z,8.13
2023-04-29T09:27:46.808Z,7.50
2023-04-29T09:30:13.953Z,7.83
2023-04-29T09:32:41.145Z,10.50
2023-04-29T09:35:27.712Z,6.90
2023-04-29T09:38:08.980Z,9.80
2023-04-29T09:40:46.586Z,10.03
2023-04-29T09:43:23.992Z,10.60
2023-04-29T09:45:50.802Z,12.13
2023-04-29T09:48:17.445Z,10.27
2023-04-29T09:50:45.033Z,9.20
2023-04-29T09:53:12.077Z,11.10
2023-04-29T09:55:53.545Z,12.47
2023-04-29T09:58:31.449Z,11.40
2023-04-29T10:01:01.708Z,8.83
2023-04-29T10:03:33.880Z,6.23
2023-04-29T10:06:01.805Z,10.20
2023-04-29T10:08:32.393Z,10.07
2023-04-29T10:11:03.408Z,10.63
2023-04-29T10:13:30.615Z,8.07
2023-04-29T10:16:08.827Z,7.30
2023-04-29T10:18:37.754Z,9.27
2023-04-29T10:21:08.009Z,8.73
2023-04-29T10:23:34.602Z,6.87
2023-04-29T10:26:01.390Z,9.77
2023-04-29T10:28:32.550Z,7.77
2023-04-29T10:31:05.075Z,9.40
2023-04-29T10:33:33.834Z,14.23
2023-04-29T10:36:01.204Z,6.23
2023-04-29T10:38:41.776Z,8.73
2023-04-29T10:41:14.454Z,9.87
2023-04-29T10:43:41.050Z,8.57
2023-04-29T10:46:16.331Z,15.00
2023-04-29T10:48:46.857Z,9.27
2023-04-29T10:51:14.377Z,16.20
2023-04-29T10:54:01.225Z,14.60
2023-04-29T10:56:54.167Z,12.90
2023-04-29T10:59:22.870Z,5.00
2023-04-29T11:01:53.436Z,5.87
2023-04-29T11:04:21.694Z,8.07
2023-04-29T11:06:56.450Z,5.40
2023-04-29T11:09:31.312Z,5.07
2023-04-29T11:12:06.111Z,7.73
2023-04-29T11:14:43.032Z,11.50
2023-04-29T11:17:12.828Z,9.90
2023-04-29T11:19:47.125Z,6.67
2023-04-29T11:22:24.784Z,11.10
2023-04-29T11:24:57.330Z,8.70
2023-04-29T11:27:26.364Z,4.90
2023-04-29T11:29:58.714Z,8.03
2023-04-29T11:32:30.185Z,7.13
2023-04-29T11:35:08.947Z,9.27
2023-04-29T11:37:35.991Z,10.17
2023-04-29T11:40:08.721Z,8.40
2023-04-29T11:42:39.130Z,9.63
2023-04-29T11:45:06.925Z,9.50
2023-04-29T11:47:33.684Z,11.63
2023-04-29T11:50:04.958Z,12.33
2023-04-29T11:52:32.242Z,8.27
2023-04-29T11:55:00.208Z,10.47
2023-04-29T11:57:27.108Z,8.83
2023-04-29T11:59:53.844Z,8.23
2023-04-29T12:02:23.856Z,11.07
2023-04-29T12:04:51.400Z,13.70
2023-04-29T12:07:18.626Z,9.07
2023-04-29T12:09:46.277Z,5.80
2023-04-29T12:12:14.934Z,9.30
2023-04-29T12:14:42.355Z,7.50
2023-04-29T12:17:11.963Z,8.20
2023-04-29T12:19:40.255Z,11.33
2023-04-29T12:22:08.290Z,6.60
2023-04-29T12:24:39.273Z,7.50
2023-04-29T12:27:09.495Z,11.37
2023-04-29T12:29:40.605Z,9.07
2023-04-29T12:32:08.144Z,12.03
2023-04-29T12:34:34.847Z,6.67
2023-04-29T12:37:02.476Z,10.67
2023-04-29T12:39:30.096Z,10.57
2023-04-29T12:42:01.579Z,11.60
2023-04-29T12:44:36.043Z,9.77
2023-04-29T12:47:10.303Z,8.37
2023-04-29T12:49:46.905Z,8.07
2023-04-29T12:52:14.101Z,10.80
2023-04-29T12:54:43.369Z,10.97
2023-04-29T12:57:11.086Z,7.97
2023-04-29T12:59:38.416Z,9.40
2023-04-29T13:02:05.108Z,8.10
2023-04-29T13:04:31.803Z,10.63
2023-04-29T13:07:02.718Z,7.80
2023-04-29T13:09:30.505Z,10.77
2023-04-29T13:11:57.719Z,5.97
2023-04-29T13:14:24.275Z,6.27
2023-04-29T13:16:50.894Z,8.20
2023-04-29T13:19:29.589Z,9.27
2023-04-29T13:22:03.884Z,5.90
2023-04-29T13:24:30.690Z,12.57
2023-04-29T13:26:58.202Z,8.27
2023-04-29T13:29:24.838Z,7.73
2023-04-29T13:31:51.409Z,9.67
2023-04-29T13:34:18.040Z,6.83
2023-04-29T13:36:44.909Z,5.23
2023-04-29T13:39:11.516Z,8.40
2023-04-29T13:41:41.255Z,11.00
2023-04-29T13:44:23.583Z,8.13
2023-04-29T13:46:55.752Z,8.17
2023-04-29T13:49:55.790Z,11.03
2023-04-29T13:54:58.827Z,9.10
2023-04-29T13:58:30.308Z,10.53
2023-04-29T14:00:38.170Z,7.10
2023-04-29T14:05:33.366Z,9.37
2023-04-29T14:08:00.210Z,7.97
2023-04-29T14:10:26.781Z,9.47
2023-04-29T14:12:53.330Z,7.10
2023-04-29T14:15:19.863Z,8.80
2023-04-29T14:17:46.387Z,5.90
2023-04-29T14:20:13.536Z,14.27
2023-04-29T14:22:40.043Z,8.30
2023-04-29T14:25:08.005Z,9.37
2023-04-29T14:27:35.864Z,10.90
2023-04-29T14:30:02.406Z,9.70
2023-04-29T14:32:29.040Z,10.43
2023-04-29T14:34:55.947Z,8.10
2023-04-29T14:37:22.622Z,7.40
2023-04-29T14:39:49.243Z,6.00
2023-04-29T14:42:15.822Z,6.80
2023-04-29T14:44:42.402Z,8.97
2023-04-29T14:47:09.494Z,8.37
2023-04-29T14:49:36.202Z,12.40
2023-04-29T14:52:02.848Z,8.50
2023-04-29T14:54:29.499Z,8.40
2023-04-29T14:56:56.096Z,12.40
2023-04-29T14:59:22.665Z,9.50
2023-04-29T15:01:49.586Z,7.00
2023-04-29T15:04:16.703Z,12.77
2023-04-29T15:06:43.357Z,12.83
2023-04-29T15:09:09.925Z,11.60
2023-04-29T15:11:36.542Z,12.47
2023-04-29T15:14:03.151Z,9.70
2023-04-29T15:16:30.396Z,9.80
2023-04-29T15:18:57.014Z,9.07
2023-04-29T15:21:23.607Z,12.27
2023-04-29T15:23:50.193Z,11.67
2023-04-29T15:26:16.851Z,8.70
2023-04-29T15:28:45.661Z,13.07
2023-04-29T15:31:12.702Z,13.77
2023-04-29T15:33:39.301Z,10.40
2023-04-29T15:36:06.815Z,8.07
2023-04-29T15:38:33.332Z,11.37
2023-04-29T15:41:01.497Z,10.70
2023-04-29T15:43:28.676Z,10.83
2023-04-29T15:45:55.903Z,9.57
2023-04-29T15:48:22.452Z,12.27
2023-04-29T15:50:48.931Z,11.83
2023-04-29T15:53:15.585Z,8.70
2023-04-29T15:55:42.059Z,10.23
2023-04-29T15:58:08.638Z,9.77
2023-04-29T16:00:35.121Z,9.53
2023-04-29T16:03:01.680Z,9.77
2023-04-29T16:05:28.906Z,8.63
2023-04-29T16:07:55.435Z,9.77
2023-04-29T16:10:22.078Z,9.87
2023-04-29T16:12:49.045Z,13.30
2023-04-29T16:15:15.843Z,7.00
2023-04-29T16:17:49.373Z,10.53
2023-04-29T16:20:17.286Z,8.97
2023-04-29T16:22:43.967Z,11.17
2023-04-29T16:25:11.514Z,8.53
2023-04-29T16:27:38.001Z,10.87
2023-04-29T16:30:05.385Z,8.97
2023-04-29T16:32:33.126Z,6.20
2023-04-29T16:35:01.493Z,9.90
2023-04-29T16:37:28.664Z,9.83
2023-04-29T16:39:55.519Z,16.37
2023-04-29T16:42:22.070Z,9.20
2023-04-29T16:44:48.539Z,8.47
2023-04-29T16:47:15.323Z,8.33
2023-04-29T16:49:42.519Z,11.03
2023-04-29T16:52:09.261Z,8.80
2023-04-29T16:54:36.621Z,12.63
2023-04-29T16:57:03.196Z,8.70
2023-04-29T16:59:30.440Z,9.87
2023-04-29T17:01:57.279Z,8.30
2023-04-29T17:04:23.990Z,11.33
2023-04-29T17:06:51.017Z,9.57
2023-04-29T17:09:17.868Z,13.20
2023-04-29T17:11:44.430Z,9.50
2023-04-29T17:14:11.176Z,8.37
2023-04-29T17:16:37.881Z,12.03
2023-04-29T17:19:04.498Z,11.63
2023-04-29T17:21:32.465Z,14.50
2023-04-29T17:23:59.217Z,11.57
2023-04-29T17:26:25.953Z,12.87
2023-04-29T17:28:52.763Z,13.63
2023-04-29T17:31:24.884Z,13.57
2023-04-29T17:34:04.984Z,13.07
2023-04-29T17:36:33.118Z,10.67
2023-04-29T17:38:59.782Z,12.57
2023-04-29T17:41:26.304Z,12.43
2023-04-29T17:43:53.249Z,12.40
2023-04-29T17:46:19.968Z,14.53
2023-04-29T17:48:46.554Z,9.17
2023-04-29T17:51:13.318Z,13.10
2023-04-29T17:53:39.857Z,15.13
2023-04-29T17:56:06.459Z,13.17
2023-04-29T17:58:33.011Z,11.93
2023-04-29T18:00:59.525Z,7.53
2023-04-29T18:03:27.543Z,13.40
2023-04-29T18:05:54.215Z,11.53
2023-04-29T18:08:21.245Z,10.07
2023-04-29T18:10:47.757Z,12.57
2023-04-29T18:13:14.388Z,10.73
2023-04-29T18:15:40.890Z,9.63
2023-04-29T18:18:08.261Z,9.60
2023-04-29T18:20:35.362Z,10.17
2023-04-29T18:23:01.858Z,11.13
2023-04-29T18:25:28.347Z,15.73
2023-04-29T18:28:07.776Z,12.63
2023-04-29T18:30:42.300Z,10.47
2023-04-29T18:33:09.006Z,7.87
2023-04-29T18:35:35.553Z,12.53
2023-04-29T18:38:02.427Z,13.63
2023-04-29T18:40:29.200Z,12.37
2023-04-29T18:42:55.726Z,14.10
2023-04-29T18:45:22.829Z,18.77
2023-04-29T18:47:49.545Z,15.10
2023-04-29T18:50:16.109Z,11.97
2023-04-29T18:52:42.610Z,15.43
2023-04-29T18:55:09.442Z,15.03
2023-04-29T18:57:35.992Z,12.30
2023-04-29T19:00:03.846Z,9.87
2023-04-29T19:02:30.640Z,15.13
2023-04-29T19:04:57.326Z,15.67
2023-04-29T19:07:23.925Z,13.37
2023-04-29T19:09:50.563Z,10.03
2023-04-29T19:12:17.052Z,14.63
2023-04-29T19:14:43.544Z,10.33
2023-04-29T19:17:10.729Z,13.33
2023-04-29T19:19:37.216Z,9.57
2023-04-29T19:22:05.261Z,11.87
2023-04-29T19:24:32.711Z,11.23
2023-04-29T19:26:59.170Z,15.77
2023-04-29T19:29:25.737Z,11.93
2023-04-29T19:31:52.997Z,10.30
2023-04-29T19:34:19.628Z,12.40
2023-04-29T19:36:46.195Z,16.67
2023-04-29T19:39:14.459Z,11.57
2023-04-29T19:41:41.127Z,17.17
2023-04-29T19:44:07.632Z,12.20
2023-04-29T19:46:34.345Z,13.83
2023-04-29T19:49:01.825Z,15.40
2023-04-29T19:51:28.490Z,13.35
2023-04-29T19:53:56.717Z,10.57
2023-04-29T19:56:23.352Z,15.63
2023-04-29T19:58:50.404Z,12.73
2023-04-29T20:01:17.346Z,11.67
2023-04-29T20:03:43.988Z,16.77
2023-04-29T20:06:11.010Z,13.37
2023-04-29T20:08:37.698Z,12.03
2023-04-29T20:11:04.714Z,13.87
2023-04-29T20:13:31.247Z,15.50
2023-04-29T20:15:57.882Z,17.47
2023-04-29T20:18:25.113Z,13.40
2023-04-29T20:20:51.754Z,14.10
2023-04-29T20:23:18.470Z,14.40
2023-04-29T20:25:45.014Z,14.20
2023-04-29T20:28:11.634Z,16.03
2023-04-29T20:30:38.242Z,16.77
2023-04-29T20:33:05.839Z,20.40
2023-04-29T20:35:33.509Z,15.30
2023-04-29T20:38:00.318Z,13.63
2023-04-29T20:40:26.798Z,13.77
2023-04-29T20:42:53.277Z,18.33
2023-04-29T20:45:19.739Z,14.00
2023-04-29T20:47:46.828Z,13.80
2023-04-29T20:50:13.414Z,17.77
2023-04-29T20:52:40.376Z,13.90
2023-04-29T20:55:06.912Z,19.30
2023-04-29T20:57:33.447Z,21.53
2023-04-29T20:59:59.987Z,15.17
2023-04-29T21:02:26.459Z,17.73
2023-04-29T21:04:52.976Z,15.17
2023-04-29T21:07:19.651Z,14.77
2023-04-29T21:09:48.562Z,20.23
2023-04-29T21:12:15.271Z,20.97
2023-04-29T21:14:42.728Z,18.47
2023-04-29T21:17:09.419Z,18.90
2023-04-29T21:19:37.466Z,17.13
2023-04-29T21:22:04.519Z,16.83
2023-04-29T21:24:31.527Z,20.17
2023-04-29T21:26:58.204Z,15.77
2023-04-29T21:29:24.685Z,18.03
2023-04-29T21:31:51.249Z,22.77
2023-04-29T21:34:17.873Z,19.20
2023-04-29T21:36:44.349Z,19.93
2023-04-29T21:39:11.671Z,19.77
2023-04-29T21:41:39.153Z,20.20
2023-04-29T21:44:06.780Z,17.13
2023-04-29T21:46:34.454Z,17.93
2023-04-29T21:49:01.410Z,20.03
2023-04-29T21:51:28.989Z,24.87
2023-04-29T21:53:55.538Z,24.00
2023-04-29T21:56:24.423Z,23.00
2023-04-29T21:58:51.047Z,20.60
2023-04-29T22:01:27.044Z,22.60
2023-04-29T22:03:54.989Z,24.03
2023-04-29T22:06:21.512Z,23.20
2023-04-29T22:08:48.553Z,21.20
2023-04-29T22:11:15.155Z,20.23
2023-04-29T22:13:42.040Z,28.53
2023-04-29T22:16:08.686Z,22.30
2023-04-29T22:18:35.468Z,23.20
2023-04-29T22:21:02.015Z,24.40
2023-04-29T22:23:28.571Z,20.30
2023-04-29T22:25:55.077Z,22.07
2023-04-29T22:28:21.629Z,25.00
2023-04-29T22:30:48.123Z,25.70
2023-04-29T22:33:15.158Z,25.83
2023-04-29T22:35:41.711Z,21.93
2023-04-29T22:38:08.238Z,25.13
2023-04-29T22:40:35.661Z,26.80
2023-04-29T22:43:03.517Z,19.10
2023-04-29T22:45:30.020Z,24.33
2023-04-29T22:47:56.630Z,25.37
2023-04-29T22:50:23.139Z,25.23
2023-04-29T22:52:49.636Z,27.93
2023-04-29T22:55:16.238Z,22.47
2023-04-29T22:57:42.821Z,21.13
2023-04-29T23:00:09.888Z,26.90
2023-04-29T23:02:36.515Z,26.77
2023-04-29T23:05:03.739Z,27.90
2023-04-29T23:07:30.344Z,30.77
2023-04-29T23:09:57.126Z,27.40
2023-04-29T23:12:24.756Z,27.47
2023-04-29T23:14:51.348Z,27.50
2023-04-29T23:17:17.909Z,30.90
2023-04-29T23:19:44.466Z,26.17
2023-04-29T23:22:10.969Z,30.03
2023-04-29T23:24:38.263Z,26.23
2023-04-29T23:27:04.794Z,27.97
2023-04-29T23:29:35.135Z,32.27
2023-04-29T23:32:01.653Z,32.13
2023-04-29T23:34:28.171Z,31.97
2023-04-29T23:36:54.696Z,26.97
2023-04-29T23:39:21.279Z,30.53
2023-04-29T23:41:47.777Z,31.33
2023-04-29T23:44:14.281Z,31.03
2023-04-29T23:46:40.880Z,32.60
2023-04-29T23:49:07.403Z,32.27
2023-04-29T23:51:34.097Z,32.77
2023-04-29T23:54:00.917Z,31.77
2023-04-29T23:56:29.051Z,31.93
2023-04-29T23:58:55.694Z,32.47
